LIPY Airport Information

Runway Information
Runway 04 Length 9718 ft width 148 ft
Elevation 47 ft Threshold 641 ft Heading 45
Runway 22 Length 9718 ft Width 148 ft
Elevation 29 ft Threshold 492 ft Heading 225
Airport Frequencies
Type APP Name ROMAGNA AP Frequency 37.975 MHZ
Type APP Name ROMAGNA AP Frequency 118.15 MHZ
Type ATIS Name ATIS Frequency 122.85 MHZ
Type TWR Name TWR Frequency 119.8 MHZ
Airport Navaids
Type VOR-DME Name Ancona Frequency 110650 KHZ
Type NDB Name Ancona Frequency 375 KHZ
Type TACAN Name Falconara Frequency 109800 KHZ
Type NDB Name Falconara Frequency 358 KHZ
Airport Weather Information & NOTAM
ADDS - METARS form results

(2303 UTC 16 October 2018)
Data provider http://aviationweather.gov/metar/data/
 
Forecast for: LIPY (FALCONARA (IT-AF, IT)
Text: TAF LIPY 161700Z 1618/1718 VRB05KT 6000 SCT025
Forecast period: 1800 UTC 16 October 2018 to 1800 UTC 17 October 2018
Forecast type: FROM: standard forecast or significant change
Winds: variable direction winds at 6 MPH (5 knots; 2.6 m/s)
Visibility: 4 miles (6 km)
Ceiling: at least 12,000 feet AGL
Clouds: scattered clouds at 2500 feet AGL
Weather: no significant weather forecast for this period
Text: TEMPO 1618/1706 4000 SHRA
Forecast period: 1800 UTC 16 October 2018 to 0600 UTC 17 October 2018
Forecast type: TEMPORARY: The following changes expected for less than half the time period
Visibility: 2.49 miles (4.01 km)
Ceiling: unknown
Clouds: missing
Weather: SHRA  (rain showers)